Sumy, Ukraine
Current Conditions -  °F | °C
As of 11:00 PM on Thursday 20 Nov 2014 (Local Time) from UUOK Reporting Station
Clear Clear  
Wind Chill: 16°   Ceiling: Unl
Heat Index: 27°   Visibility: 6mi
Dew Point: 18°   Wind: 11mph
Humidity: 69%   Direction: 90°E
Pressure: 30.5"   Gusts: 22mph
Location:  50.92°N, 34.78°E
Report Text: UUOK 202000Z 09005G10MPS CAVOK M03/M08 Q1033 NOSIG RMK12CLRD70
Loading
Personal Weather Stations






























Interactive Weather Map New forecast layout! Learn more

10-Day Weather Forecast

Advertisements
Track Severe Weather on mobile